createdAt,value
2023-04-05T00:00:08.276Z,3.30
2023-04-05T00:03:12.840Z,3.30
2023-04-05T00:06:16.525Z,3.20
2023-04-05T00:09:20.464Z,3.00
2023-04-05T00:12:22.184Z,3.00
2023-04-05T00:15:24.306Z,2.90
2023-04-05T00:18:26.179Z,2.90
2023-04-05T00:21:27.875Z,2.70
2023-04-05T00:24:30.856Z,2.60
2023-04-05T00:27:32.555Z,2.60
2023-04-05T00:30:34.319Z,2.50
2023-04-05T00:33:36.123Z,2.40
2023-04-05T00:36:37.833Z,2.40
2023-04-05T00:39:39.922Z,2.40
2023-04-05T00:42:41.731Z,2.40
2023-04-05T00:45:43.432Z,2.30
2023-04-05T00:48:45.296Z,2.10
2023-04-05T00:51:48.232Z,2.20
2023-04-05T00:54:52.387Z,2.10
2023-04-05T00:57:55.926Z,2.00
2023-04-05T01:01:14.139Z,1.90
2023-04-05T01:04:21.649Z,1.80
2023-04-05T01:07:38.168Z,1.70
2023-04-05T01:10:44.275Z,1.70
2023-04-05T01:13:46.945Z,1.60
2023-04-05T01:16:49.801Z,1.60
2023-04-05T01:20:00.353Z,1.70
2023-04-05T01:23:24.980Z,1.30
2023-04-05T01:26:33.763Z,1.60
2023-04-05T01:29:42.313Z,1.50
2023-04-05T01:33:16.304Z,1.50
2023-04-05T01:36:37.528Z,1.50
2023-04-05T01:39:40.269Z,1.50
2023-04-05T01:42:45.916Z,1.50
2023-04-05T01:45:47.783Z,1.60
2023-04-05T01:48:49.456Z,1.70
2023-04-05T01:51:51.270Z,1.60
2023-04-05T01:54:53.096Z,1.40
2023-04-05T01:57:56.550Z,1.50
2023-04-05T02:00:58.589Z,1.40
2023-04-05T02:04:00.488Z,1.40
2023-04-05T02:07:03.033Z,1.40
2023-04-05T02:10:05.241Z,1.40
2023-04-05T02:13:07.367Z,1.30
2023-04-05T02:16:09.115Z,1.30
2023-04-05T02:19:11.205Z,1.30
2023-04-05T02:22:13.871Z,1.30
2023-04-05T02:25:15.706Z,1.30
2023-04-05T02:28:17.405Z,1.20
2023-04-05T02:31:19.416Z,1.20
2023-04-05T02:34:22.806Z,1.10
2023-04-05T02:37:26.143Z,1.00
2023-04-05T02:40:27.835Z,0.80
2023-04-05T02:48:18.101Z,0.90
2023-04-05T02:51:20.464Z,0.70
2023-04-05T02:54:22.416Z,0.70
2023-04-05T02:57:26.216Z,0.70
2023-04-05T03:00:36.436Z,0.70
2023-04-05T03:03:40.357Z,0.70
2023-04-05T03:06:46.237Z,0.70
2023-04-05T03:09:51.304Z,0.70
2023-04-05T03:12:54.014Z,0.70
2023-04-05T03:15:59.549Z,0.70
2023-04-05T03:19:06.265Z,0.70
2023-04-05T03:22:11.094Z,0.80
2023-04-05T03:25:14.796Z,0.80
2023-04-05T03:28:20.895Z,0.90
2023-04-05T03:31:29.285Z,0.80
2023-04-05T03:34:34.612Z,0.90
2023-04-05T03:37:43.213Z,0.90
2023-04-05T03:40:45.370Z,0.80
2023-04-05T03:43:48.639Z,0.80
2023-04-05T03:46:51.091Z,0.70
2023-04-05T03:49:55.174Z,0.80
2023-04-05T03:52:57.224Z,0.80
2023-04-05T03:55:59.071Z,0.80
2023-04-05T03:59:14.058Z,0.70
2023-04-05T04:02:16.069Z,0.80
2023-04-05T04:05:18.049Z,0.80
2023-04-05T04:08:23.082Z,0.80
2023-04-05T04:11:24.873Z,1.30
2023-04-05T04:14:27.257Z,0.60
2023-04-05T04:17:47.901Z,0.60
2023-04-05T04:21:06.812Z,0.60
2023-04-05T04:24:23.044Z,0.60
2023-04-05T04:28:00.351Z,0.50
2023-04-05T04:31:13.663Z,0.40
2023-04-05T04:34:46.666Z,0.40
2023-04-05T04:38:08.924Z,0.40
2023-04-05T04:41:22.582Z,0.60
2023-04-05T04:44:36.366Z,0.40
2023-04-05T04:48:10.164Z,0.30
2023-04-05T04:51:22.526Z,0.40
2023-04-05T04:54:25.365Z,0.40
2023-04-05T04:57:27.067Z,0.30
2023-04-05T05:00:29.981Z,0.30
2023-04-05T05:03:35.618Z,0.20
2023-04-05T05:06:37.616Z,0.30
2023-04-05T05:09:39.338Z,0.30
2023-04-05T05:12:41.049Z,0.30
2023-04-05T05:15:44.168Z,0.30
2023-04-05T05:18:48.045Z,0.30
2023-04-05T05:21:50.161Z,0.40
2023-04-05T05:24:51.911Z,0.40
2023-04-05T05:27:53.652Z,0.30
2023-04-05T05:30:58.167Z,0.40
2023-04-05T05:33:59.951Z,0.40
2023-04-05T05:37:01.750Z,0.50
2023-04-05T05:40:05.185Z,0.50
2023-04-05T05:43:06.901Z,0.60
2023-04-05T05:46:08.742Z,0.60
2023-04-05T05:49:10.682Z,0.50
2023-04-05T05:52:12.413Z,0.70
2023-04-05T05:55:14.239Z,0.90
2023-04-05T05:58:15.956Z,0.80
2023-04-05T06:01:17.761Z,0.80
2023-04-05T06:04:19.642Z,1.00
2023-04-05T06:07:21.780Z,1.10
2023-04-05T06:10:24.618Z,1.30
2023-04-05T06:13:26.324Z,1.40
2023-04-05T06:16:29.160Z,1.40
2023-04-05T06:19:30.956Z,1.40
2023-04-05T06:22:33.624Z,1.60
2023-04-05T06:25:35.724Z,1.80
2023-04-05T06:28:37.491Z,2.00
2023-04-05T06:31:39.322Z,2.20
2023-04-05T06:34:41.094Z,2.20
2023-04-05T06:37:42.861Z,2.20
2023-04-05T06:40:44.664Z,2.30
2023-04-05T06:43:46.362Z,2.40
2023-04-05T06:46:48.077Z,2.50
2023-04-05T06:49:49.802Z,2.60
2023-04-05T06:52:51.505Z,2.70
2023-04-05T06:55:58.123Z,2.80
2023-04-05T06:59:02.131Z,2.80
2023-04-05T07:02:03.955Z,2.90
2023-04-05T07:05:06.196Z,3.00
2023-04-05T07:08:07.953Z,3.10
2023-04-05T07:11:09.719Z,3.20
2023-04-05T07:14:11.736Z,3.20
2023-04-05T07:17:13.490Z,3.20
2023-04-05T07:20:16.225Z,3.30
2023-04-05T07:23:18.277Z,3.40
2023-04-05T07:26:20.273Z,3.60
2023-04-05T07:29:21.995Z,3.60
2023-04-05T07:32:23.822Z,3.70
2023-04-05T07:35:25.704Z,3.80
2023-04-05T07:38:29.243Z,4.00
2023-04-05T07:41:35.544Z,4.10
2023-04-05T07:44:37.292Z,4.30
2023-04-05T07:47:39.066Z,4.40
2023-04-05T07:50:42.306Z,4.40
2023-04-05T07:53:44.316Z,4.50
2023-04-05T07:56:46.041Z,4.50
2023-04-05T07:59:50.923Z,4.70
2023-04-05T08:02:52.853Z,5.00
2023-04-05T08:05:54.954Z,5.00
2023-04-05T08:08:56.818Z,5.10
2023-04-05T08:11:59.860Z,5.20
2023-04-05T08:15:01.713Z,5.50
2023-04-05T08:18:03.722Z,5.50
2023-04-05T08:21:05.711Z,5.60
2023-04-05T08:24:07.576Z,5.90
2023-04-05T08:27:09.303Z,5.90
2023-04-05T08:30:11.586Z,6.00
2023-04-05T08:33:14.092Z,6.10
2023-04-05T08:36:16.394Z,6.30
2023-04-05T08:39:18.650Z,6.40
2023-04-05T08:42:41.260Z,6.50
2023-04-05T08:45:48.438Z,6.70
2023-04-05T08:48:50.926Z,6.70
2023-04-05T08:51:54.607Z,6.80
2023-04-05T08:54:56.400Z,7.00
2023-04-05T08:58:01.107Z,7.00
2023-04-05T09:01:05.831Z,7.00
2023-04-05T09:04:14.052Z,7.10
2023-04-05T09:07:16.447Z,7.20
2023-04-05T09:10:20.987Z,7.20
2023-04-05T09:13:22.695Z,7.80
2023-04-05T09:16:25.894Z,7.80
2023-04-05T09:19:27.621Z,7.90
2023-04-05T09:22:29.341Z,8.40
2023-04-05T09:25:39.452Z,8.20
2023-04-05T09:28:45.198Z,8.30
2023-04-05T09:31:47.300Z,8.20
2023-04-05T09:34:51.751Z,8.50
2023-04-05T09:38:02.759Z,8.50
2023-04-05T09:41:10.726Z,8.80
2023-04-05T09:44:12.447Z,9.00
2023-04-05T09:47:19.062Z,9.00
2023-04-05T09:50:21.336Z,9.40
2023-04-05T09:53:23.044Z,9.50
2023-04-05T09:56:27.028Z,9.80
2023-04-05T09:59:36.115Z,9.60
2023-04-05T10:02:40.993Z,10.20
2023-04-05T10:05:45.969Z,10.40
2023-04-05T10:08:48.850Z,10.20
2023-04-05T10:11:53.448Z,10.50
2023-04-05T10:14:58.025Z,10.60
2023-04-05T10:18:18.983Z,11.60
2023-04-05T10:21:31.430Z,11.40
2023-04-05T10:24:51.935Z,10.90
2023-04-05T10:28:36.327Z,13.30
2023-04-05T10:32:08.237Z,11.90
2023-04-05T10:35:17.728Z,12.10
2023-04-05T10:38:28.235Z,12.00
2023-04-05T10:41:47.805Z,11.70
2023-04-05T10:45:00.356Z,12.20
2023-04-05T10:48:31.497Z,12.70
2023-04-05T10:51:34.871Z,12.10
2023-04-05T10:54:37.551Z,12.20
2023-04-05T10:57:40.324Z,12.50
2023-04-05T11:00:43.297Z,13.10
2023-04-05T11:03:47.048Z,12.40
2023-04-05T11:07:11.968Z,13.00
2023-04-05T11:10:19.191Z,12.20
2023-04-05T11:13:21.747Z,13.10
2023-04-05T11:16:43.119Z,12.50
2023-04-05T11:19:56.368Z,11.80
2023-04-05T11:22:59.341Z,11.80
2023-04-05T11:26:06.645Z,12.00
2023-04-05T11:29:12.681Z,11.90
2023-04-05T11:32:28.523Z,12.10
2023-04-05T11:35:35.138Z,12.60
2023-04-05T11:38:37.887Z,12.10
2023-04-05T11:41:39.912Z,12.00
2023-04-05T11:44:48.106Z,12.60
2023-04-05T11:47:51.207Z,12.40
2023-04-05T11:50:54.927Z,13.40
2023-04-05T11:53:59.844Z,13.00
2023-04-05T11:57:02.513Z,12.80
2023-04-05T12:00:04.898Z,13.50
2023-04-05T12:03:18.453Z,12.40
2023-04-05T12:06:22.695Z,12.20
2023-04-05T12:09:30.749Z,12.20
2023-04-05T12:12:42.148Z,12.20
2023-04-05T12:15:44.346Z,12.60
2023-04-05T12:19:02.462Z,13.10
2023-04-05T12:22:04.431Z,13.80
2023-04-05T12:25:07.242Z,13.10
2023-04-05T12:28:09.584Z,13.00
2023-04-05T12:31:12.996Z,13.00
2023-04-05T12:34:18.727Z,14.50
2023-04-05T12:37:22.318Z,13.80
2023-04-05T12:40:24.963Z,14.10
2023-04-05T12:43:38.184Z,13.70
2023-04-05T12:46:42.280Z,13.10
2023-04-05T12:49:47.707Z,13.10
2023-04-05T12:53:06.844Z,14.50
2023-04-05T12:56:10.962Z,13.50
2023-04-05T12:59:12.845Z,13.80
2023-04-05T13:02:19.473Z,14.40
2023-04-05T13:05:38.391Z,14.70
2023-04-05T13:08:40.604Z,13.60
2023-04-05T13:11:42.814Z,13.50
2023-04-05T13:14:44.927Z,14.40
2023-04-05T13:17:50.363Z,15.10
2023-04-05T13:20:55.051Z,14.80
2023-04-05T13:23:56.995Z,15.00
2023-04-05T13:27:00.982Z,15.50
2023-04-05T13:30:03.428Z,15.50
2023-04-05T13:33:07.545Z,16.50
2023-04-05T13:36:11.113Z,16.30
2023-04-05T13:39:13.555Z,17.40
2023-04-05T13:42:15.882Z,16.80
2023-04-05T13:45:18.039Z,17.20
2023-04-05T13:48:50.396Z,17.00
2023-04-05T13:51:56.524Z,17.20
2023-04-05T13:55:02.251Z,18.10
2023-04-05T13:58:08.772Z,18.10
2023-04-05T14:01:13.824Z,18.10
2023-04-05T14:04:27.597Z,17.30
2023-04-05T14:07:33.862Z,17.40
2023-04-05T14:10:36.418Z,16.60
2023-04-05T14:13:38.430Z,15.80
2023-04-05T14:16:40.480Z,16.60
2023-04-05T14:19:42.482Z,17.00
2023-04-05T14:22:44.559Z,15.10
2023-04-05T14:25:49.603Z,15.00
2023-04-05T14:28:52.229Z,15.90
2023-04-05T14:31:55.929Z,16.60
2023-04-05T14:35:01.224Z,18.60
2023-04-05T14:38:03.463Z,18.00
2023-04-05T14:41:06.271Z,19.10
2023-04-05T14:44:08.321Z,19.80
2023-04-05T14:47:10.413Z,20.20
2023-04-05T14:50:12.785Z,20.70
2023-04-05T14:53:18.300Z,20.80
2023-04-05T14:56:21.325Z,21.40
2023-04-05T14:59:26.522Z,21.80
2023-04-05T15:02:28.902Z,22.10
2023-04-05T15:05:31.091Z,21.50
2023-04-05T15:08:33.902Z,22.20
2023-04-05T15:11:40.350Z,20.80
2023-04-05T15:14:45.768Z,20.20
2023-04-05T15:17:47.803Z,21.80
2023-04-05T15:20:50.280Z,19.80
2023-04-05T15:23:52.273Z,19.10
2023-04-05T15:27:02.173Z,18.60
2023-04-05T15:33:28.979Z,19.40
2023-04-05T15:36:31.149Z,18.60
2023-04-05T15:39:33.938Z,19.90
2023-04-05T15:42:36.326Z,20.50
2023-04-05T15:45:41.259Z,17.20
2023-04-05T15:48:44.103Z,18.00
2023-04-05T15:51:46.586Z,18.00
2023-04-05T15:54:53.989Z,18.90
2023-04-05T15:57:56.279Z,19.10
2023-04-05T16:00:58.414Z,19.80
2023-04-05T16:04:04.048Z,20.40
2023-04-05T16:07:07.819Z,19.90
2023-04-05T16:10:10.467Z,17.30
2023-04-05T16:13:12.594Z,17.10
2023-04-05T16:16:20.559Z,18.20
2023-04-05T16:19:30.494Z,18.10
2023-04-05T16:22:32.607Z,17.70
2023-04-05T16:25:34.458Z,16.60
2023-04-05T16:28:36.293Z,16.10
2023-04-05T16:31:38.500Z,15.40
2023-04-05T16:34:40.954Z,15.10
2023-04-05T16:37:43.896Z,14.40
2023-04-05T16:40:46.005Z,15.00
2023-04-05T16:43:47.947Z,14.80
2023-04-05T16:46:50.628Z,14.20
2023-04-05T16:49:52.446Z,13.40
2023-04-05T16:52:54.567Z,13.20
2023-04-05T16:55:56.751Z,13.40
2023-04-05T16:58:58.869Z,14.20
2023-04-05T17:02:00.984Z,13.50
2023-04-05T17:05:03.151Z,13.70
2023-04-05T17:08:05.364Z,12.90
2023-04-05T17:11:07.437Z,12.50
2023-04-05T17:14:09.675Z,12.30
2023-04-05T17:17:11.703Z,13.80
2023-04-05T17:20:13.669Z,12.30
2023-04-05T17:23:15.991Z,12.80
2023-04-05T17:26:17.947Z,13.20
2023-04-05T17:29:20.185Z,13.50
2023-04-05T17:32:22.252Z,12.50
2023-04-05T17:35:24.327Z,13.30
2023-04-05T17:38:28.770Z,11.60
2023-04-05T17:41:30.825Z,11.50
2023-04-05T17:44:32.852Z,13.00
2023-04-05T17:47:35.955Z,11.40
2023-04-05T17:50:38.202Z,12.30
2023-04-05T17:53:40.099Z,12.10
2023-04-05T17:56:42.254Z,11.50
2023-04-05T17:59:44.597Z,12.40
2023-04-05T18:02:46.593Z,11.30
2023-04-05T18:05:55.400Z,11.90
2023-04-05T18:08:57.317Z,10.30
2023-04-05T18:11:59.954Z,10.10
2023-04-05T18:15:02.034Z,11.10
2023-04-05T18:18:04.305Z,11.00
2023-04-05T18:21:06.285Z,9.90
2023-04-05T18:24:08.349Z,10.10
2023-04-05T18:27:10.932Z,9.70
2023-04-05T18:30:14.010Z,10.70
2023-04-05T18:33:16.643Z,9.60
2023-04-05T18:36:18.895Z,10.30
2023-04-05T18:39:21.253Z,10.90
2023-04-05T18:42:23.204Z,9.40
2023-04-05T18:45:25.114Z,9.90
2023-04-05T18:48:28.622Z,8.90
2023-04-05T18:51:31.149Z,9.10
2023-04-05T18:54:34.079Z,10.40
2023-04-05T18:57:39.212Z,9.40
2023-04-05T19:00:41.049Z,9.10
2023-04-05T19:03:44.047Z,9.30
2023-04-05T19:06:46.000Z,9.60
2023-04-05T19:09:47.748Z,9.30
2023-04-05T19:12:49.675Z,8.90
2023-04-05T19:15:51.519Z,9.20
2023-04-05T19:18:53.811Z,6.90
2023-04-05T19:21:57.861Z,8.20
2023-04-05T19:25:01.022Z,8.70
2023-04-05T19:28:03.001Z,8.50
2023-04-05T19:31:04.944Z,8.30
2023-04-05T19:34:10.593Z,7.80
2023-04-05T19:37:12.694Z,7.00
2023-04-05T19:40:14.613Z,8.10
2023-04-05T19:43:21.548Z,7.80
2023-04-05T19:46:23.419Z,6.70
2023-04-05T19:49:38.963Z,6.60
2023-04-05T19:52:47.692Z,6.60
2023-04-05T19:55:49.824Z,7.40
2023-04-05T19:59:17.365Z,6.60
2023-04-05T20:02:38.682Z,6.60
2023-04-05T20:05:43.789Z,8.30
2023-04-05T20:08:47.292Z,6.80
2023-04-05T20:11:53.285Z,7.10
2023-04-05T20:14:55.680Z,7.00
2023-04-05T20:17:57.603Z,7.00
2023-04-05T20:20:59.501Z,5.90
2023-04-05T20:24:03.205Z,7.10
2023-04-05T20:27:05.464Z,7.70
2023-04-05T20:30:11.554Z,7.20
2023-04-05T20:33:48.983Z,5.80
2023-04-05T20:36:54.659Z,7.00
2023-04-05T20:39:56.600Z,7.00
2023-04-05T20:42:58.662Z,5.90
2023-04-05T20:46:03.114Z,5.60
2023-04-05T20:49:05.076Z,5.60
2023-04-05T20:52:08.843Z,5.40
2023-04-05T20:55:11.128Z,6.00
2023-04-05T20:58:13.039Z,5.50
2023-04-05T21:01:14.881Z,5.90
2023-04-05T21:04:16.918Z,6.00
2023-04-05T21:07:19.054Z,5.30
2023-04-05T21:10:21.992Z,5.80
2023-04-05T21:13:25.515Z,5.50
2023-04-05T21:16:27.485Z,6.30
2023-04-05T21:19:29.532Z,5.30
2023-04-05T21:22:31.483Z,5.60
2023-04-05T21:25:34.376Z,5.60
2023-04-05T21:28:36.385Z,4.70
2023-04-05T21:31:38.215Z,6.20
2023-04-05T21:34:40.241Z,4.50
2023-04-05T21:37:42.068Z,4.50
2023-04-05T21:40:44.892Z,5.10
2023-04-05T21:43:46.796Z,4.30
2023-04-05T21:46:48.953Z,5.30
2023-04-05T21:49:52.755Z,4.80
2023-04-05T21:52:54.630Z,4.00
2023-04-05T21:55:56.674Z,3.90
2023-04-05T21:58:58.488Z,4.70
2023-04-05T22:02:00.958Z,3.90
2023-04-05T22:05:02.793Z,3.80
2023-04-05T22:08:05.679Z,3.80
2023-04-05T22:11:08.035Z,3.70
2023-04-05T22:14:09.869Z,3.80
2023-04-05T22:17:11.592Z,3.70
2023-04-05T22:20:13.314Z,3.50
2023-04-05T22:23:15.009Z,3.50
2023-04-05T22:26:16.736Z,3.40
2023-04-05T22:29:18.732Z,3.30
2023-04-05T22:32:20.458Z,3.30
2023-04-05T22:35:22.187Z,3.20
2023-04-05T22:38:23.910Z,3.10
2023-04-05T22:41:25.640Z,3.00
2023-04-05T22:44:27.361Z,2.90
2023-04-05T22:47:29.258Z,2.80
2023-04-05T22:50:31.942Z,2.70
2023-04-05T22:53:33.856Z,2.80
2023-04-05T22:56:35.955Z,2.80
2023-04-05T22:59:37.877Z,2.80
2023-04-05T23:02:39.791Z,2.80
2023-04-05T23:05:41.595Z,2.70
2023-04-05T23:08:43.327Z,2.70
2023-04-05T23:11:45.430Z,2.60
2023-04-05T23:14:47.370Z,2.60
2023-04-05T23:17:50.134Z,2.60
2023-04-05T23:20:51.881Z,2.60
2023-04-05T23:23:53.638Z,2.50
2023-04-05T23:26:55.621Z,2.50
2023-04-05T23:29:57.595Z,2.50
2023-04-05T23:32:59.324Z,2.50
2023-04-05T23:36:01.092Z,2.30
2023-04-05T23:39:03.002Z,2.30
2023-04-05T23:42:05.064Z,2.20
2023-04-05T23:45:09.055Z,2.20
2023-04-05T23:48:12.349Z,2.10
2023-04-05T23:51:14.167Z,2.10
2023-04-05T23:54:15.863Z,2.20
2023-04-05T23:57:17.617Z,2.20
